Time;durP1;ratioP1;P1;durP2;ratioP2;P2;SDS_P1;SDS_P2;PMS_P1;PMS_P2;Temp;Humidity;BMP_temperature;BMP_pressure;BME280_temperature;BME280_humidity;BME280_pressure;Samples;Min_cycle;Max_cycle;Signal;HPM_P1;HPM_P2
2022/03/02 00:01:48;;;;;;;9.15;5.25;;;8.90;72.40;;;;;;5021963;28;20026;-60
2022/03/02 00:04:14;;;;;;;13.25;6.13;;;8.90;72.60;;;;;;5023582;28;20029;-61
2022/03/02 00:06:39;;;;;;;23.35;5.82;;;8.90;72.50;;;;;;5031255;28;20036;-61
2022/03/02 00:09:05;;;;;;;14.25;5.43;;;8.90;72.50;;;;;;5035629;28;20032;-61
2022/03/02 00:11:31;;;;;;;14.60;5.03;;;8.90;72.30;;;;;;5023202;28;20026;-61
2022/03/02 00:14:00;;;;;;;14.55;5.30;;;8.90;72.40;;;;;;5024049;28;20041;-62
2022/03/02 00:16:29;;;;;;;6.95;4.22;;;8.90;72.60;;;;;;5045268;28;20477;-61
2022/03/02 00:18:58;;;;;;;10.98;4.30;;;8.90;72.60;;;;;;5038670;28;20029;-61
2022/03/02 00:21:25;;;;;;;13.18;5.13;;;8.90;72.60;;;;;;5016420;28;20133;-60
2022/03/02 00:23:51;;;;;;;11.57;4.90;;;8.90;72.80;;;;;;5042349;28;20040;-61
2022/03/02 00:26:18;;;;;;;7.70;3.63;;;8.80;72.80;;;;;;5031622;28;20051;-61
2022/03/02 00:28:44;;;;;;;11.52;4.70;;;8.90;72.60;;;;;;5023969;28;20061;-61
2022/03/02 00:31:10;;;;;;;10.00;4.03;;;8.90;72.50;;;;;;5037347;28;20025;-61
2022/03/02 00:33:37;;;;;;;11.23;5.00;;;8.90;72.50;;;;;;5019230;28;20113;-61
2022/03/02 00:36:04;;;;;;;11.35;4.80;;;8.80;72.80;;;;;;5023380;28;20399;-61
2022/03/02 00:38:29;;;;;;;27.90;7.97;;;8.90;72.50;;;;;;5014092;28;20463;-61
2022/03/02 00:40:55;;;;;;;10.48;5.15;;;8.90;72.50;;;;;;5038306;28;20045;-61
2022/03/02 00:43:21;;;;;;;8.00;4.38;;;8.90;72.40;;;;;;5041320;28;20615;-61
2022/03/02 00:45:46;;;;;;;12.55;4.65;;;8.90;72.60;;;;;;5027859;28;20507;-62
2022/03/02 00:48:13;;;;;;;12.15;4.68;;;8.90;72.60;;;;;;5042413;28;20048;-61
2022/03/02 00:50:39;;;;;;;12.05;4.85;;;8.80;72.80;;;;;;5046198;28;20029;-61
2022/03/02 00:53:07;;;;;;;10.63;4.80;;;8.90;72.60;;;;;;5031189;28;20017;-61
2022/03/02 00:55:33;;;;;;;9.32;5.13;;;8.90;72.30;;;;;;5032399;28;20171;-61
2022/03/02 00:58:00;;;;;;;9.98;4.65;;;8.90;72.60;;;;;;5029480;28;20032;-62
2022/03/02 01:00:26;;;;;;;8.35;3.95;;;8.90;72.50;;;;;;5020144;28;20116;-61
2022/03/02 01:02:51;;;;;;;13.50;5.28;;;8.90;72.20;;;;;;5019871;28;20037;-61
2022/03/02 01:05:17;;;;;;;13.30;5.28;;;8.90;72.30;;;;;;5020652;28;20387;-61
2022/03/02 01:07:43;;;;;;;16.70;5.95;;;8.80;72.50;;;;;;5025432;28;20123;-62
2022/03/02 01:10:10;;;;;;;16.27;6.07;;;8.80;72.30;;;;;;5030896;28;20439;-61
2022/03/02 01:12:36;;;;;;;12.75;4.55;;;8.90;72.30;;;;;;5037578;28;20026;-61
2022/03/02 01:15:03;;;;;;;13.95;5.10;;;8.90;72.30;;;;;;5024698;28;20368;-61
2022/03/02 01:17:29;;;;;;;11.55;5.25;;;8.80;72.40;;;;;;5020032;28;20099;-61
2022/03/02 01:19:55;;;;;;;10.75;5.32;;;8.80;72.40;;;;;;5043924;28;20686;-61
2022/03/02 01:22:21;;;;;;;12.85;4.40;;;8.80;72.60;;;;;;5033884;28;20034;-61
2022/03/02 01:24:46;;;;;;;11.88;4.32;;;8.80;72.20;;;;;;5037535;28;20079;-61
2022/03/02 01:27:12;;;;;;;11.05;5.13;;;8.80;72.30;;;;;;5031384;28;20057;-61
2022/03/02 01:29:38;;;;;;;32.22;9.68;;;8.80;72.30;;;;;;5023229;28;20874;-61
2022/03/02 01:32:07;;;;;;;19.33;6.93;;;8.80;72.10;;;;;;5037241;28;20059;-61
2022/03/02 01:34:34;;;;;;;16.40;5.50;;;8.80;72.30;;;;;;5041161;28;20091;-61
2022/03/02 01:37:03;;;;;;;11.20;4.68;;;8.80;71.80;;;;;;5036829;28;20463;-61
2022/03/02 01:39:28;;;;;;;11.05;4.63;;;8.80;72.30;;;;;;5030867;28;20033;-61
2022/03/02 01:41:54;;;;;;;11.32;5.43;;;8.80;72.30;;;;;;5025697;28;20454;-61
2022/03/02 01:44:20;;;;;;;14.80;4.90;;;8.80;72.50;;;;;;5037620;28;20082;-61
2022/03/02 01:46:46;;;;;;;9.02;4.40;;;8.80;72.40;;;;;;5023003;28;20028;-62
2022/03/02 01:49:12;;;;;;;14.55;5.47;;;8.80;72.40;;;;;;5037594;28;20041;-61
2022/03/02 01:51:38;;;;;;;11.80;4.60;;;8.80;72.30;;;;;;5030790;28;20174;-61
2022/03/02 01:54:05;;;;;;;11.45;5.07;;;8.80;72.20;;;;;;5041700;28;20025;-61
2022/03/02 01:56:33;;;;;;;19.13;5.47;;;8.80;72.30;;;;;;5034534;28;20031;-62
2022/03/02 01:58:59;;;;;;;8.30;4.15;;;8.80;72.20;;;;;;5034577;28;20116;-61
2022/03/02 02:01:25;;;;;;;8.65;3.92;;;8.90;72.10;;;;;;5014848;28;20448;-61
2022/03/02 02:03:51;;;;;;;10.80;4.22;;;8.80;72.30;;;;;;5021068;28;20041;-61
2022/03/02 02:06:17;;;;;;;12.77;5.20;;;8.80;72.30;;;;;;5012210;28;20541;-61
2022/03/02 02:08:44;;;;;;;16.15;4.93;;;8.80;72.40;;;;;;5033434;28;20026;-62
2022/03/02 02:11:11;;;;;;;9.80;4.38;;;8.80;73.00;;;;;;5042536;28;20033;-61
2022/03/02 02:13:38;;;;;;;13.05;4.60;;;8.80;72.50;;;;;;5013124;28;20022;-61
2022/03/02 02:16:05;;;;;;;9.73;4.18;;;8.80;72.60;;;;;;5033688;28;20491;-61
2022/03/02 02:18:32;;;;;;;6.57;3.72;;;8.80;72.50;;;;;;5011837;28;20026;-61
2022/03/02 02:21:04;;;;;;;10.52;3.88;;;8.80;72.40;;;;;;5030604;28;20037;-61
2022/03/02 02:23:30;;;;;;;8.70;4.50;;;8.80;72.60;;;;;;5036880;28;20037;-60
2022/03/02 02:25:55;;;;;;;8.80;3.53;;;8.80;72.20;;;;;;5036693;28;20028;-61
2022/03/02 02:28:24;;;;;;;6.13;3.90;;;8.80;72.60;;;;;;5018907;28;20033;-61
2022/03/02 02:30:53;;;;;;;11.40;4.43;;;8.80;72.30;;;;;;5039395;28;20382;-62
2022/03/02 02:33:19;;;;;;;10.32;4.45;;;8.80;72.50;;;;;;5006927;28;20021;-61
2022/03/02 02:35:45;;;;;;;12.48;3.70;;;8.80;72.40;;;;;;5032758;28;20033;-61
2022/03/02 02:38:11;;;;;;;5.53;3.60;;;8.90;72.20;;;;;;5036056;28;20481;-61
2022/03/02 02:40:37;;;;;;;9.95;4.30;;;8.80;72.50;;;;;;5022892;28;20044;-61
2022/03/02 02:43:05;;;;;;;8.25;3.97;;;8.80;72.50;;;;;;5040283;28;20044;-61
2022/03/02 02:45:31;;;;;;;7.28;4.10;;;8.80;72.70;;;;;;5019832;28;20033;-61
2022/03/02 02:47:58;;;;;;;7.85;4.60;;;8.80;72.60;;;;;;5029790;28;20070;-61
2022/03/02 02:50:26;;;;;;;7.20;3.58;;;8.80;72.70;;;;;;5037810;28;20037;-61
2022/03/02 02:52:53;;;;;;;9.02;4.22;;;8.80;73.30;;;;;;5025776;28;20036;-61
2022/03/02 02:55:20;;;;;;;10.18;4.15;;;8.80;73.00;;;;;;5023007;28;20036;-61
2022/03/02 02:57:46;;;;;;;9.85;4.22;;;8.80;72.80;;;;;;5050902;28;20114;-61
2022/03/02 03:00:15;;;;;;;6.55;3.72;;;8.80;72.80;;;;;;5042183;28;20486;-62
2022/03/02 03:02:42;;;;;;;8.70;4.15;;;8.80;73.10;;;;;;5046681;28;20033;-62
2022/03/02 03:05:12;;;;;;;10.98;4.65;;;8.80;72.80;;;;;;5039355;28;20024;-61
2022/03/02 03:07:38;;;;;;;12.05;5.22;;;8.80;72.80;;;;;;5014040;28;20030;-61
2022/03/02 03:10:06;;;;;;;9.75;4.45;;;8.80;72.80;;;;;;5032407;28;20042;-61
2022/03/02 03:12:32;;;;;;;10.63;4.55;;;8.80;72.80;;;;;;5028475;28;20040;-61
2022/03/02 03:14:58;;;;;;;9.57;3.90;;;8.80;73.00;;;;;;5039911;28;20103;-61
2022/03/02 03:17:24;;;;;;;14.30;4.00;;;8.80;72.90;;;;;;5034842;28;20132;-61
2022/03/02 03:19:50;;;;;;;6.97;4.00;;;8.80;73.00;;;;;;5022539;28;20029;-61
2022/03/02 03:22:16;;;;;;;6.65;3.33;;;8.80;72.90;;;;;;5024997;28;20088;-62
2022/03/02 03:24:41;;;;;;;8.35;3.30;;;8.70;73.10;;;;;;5033947;28;20032;-61
2022/03/02 03:27:07;;;;;;;11.45;4.97;;;8.80;73.00;;;;;;5045261;28;20036;-61
2022/03/02 03:29:33;;;;;;;12.02;4.30;;;8.80;73.00;;;;;;5024744;28;20026;-61
2022/03/02 03:31:59;;;;;;;9.05;3.72;;;8.80;73.00;;;;;;5039388;28;20071;-62
2022/03/02 03:34:24;;;;;;;9.75;4.63;;;8.80;72.60;;;;;;5022412;28;20033;-61
2022/03/02 03:36:52;;;;;;;12.85;5.63;;;8.80;72.90;;;;;;5046805;28;20549;-61
2022/03/02 03:39:18;;;;;;;12.07;5.28;;;8.80;72.80;;;;;;5036146;28;20477;-61
2022/03/02 03:41:44;;;;;;;9.63;4.45;;;8.80;72.70;;;;;;5022080;28;20025;-61
2022/03/02 03:44:10;;;;;;;10.13;3.67;;;8.80;72.80;;;;;;5006242;28;20103;-61
2022/03/02 03:46:36;;;;;;;16.92;5.30;;;8.80;72.60;;;;;;5023069;28;20034;-61
2022/03/02 03:49:02;;;;;;;13.15;4.75;;;8.80;72.70;;;;;;5017002;28;20036;-61
2022/03/02 03:51:27;;;;;;;10.50;5.18;;;8.80;73.00;;;;;;5021187;28;20033;-61
2022/03/02 03:53:53;;;;;;;8.68;5.10;;;8.80;72.80;;;;;;5031736;28;20454;-61
2022/03/02 03:56:19;;;;;;;13.43;4.07;;;8.80;72.60;;;;;;5032765;28;20068;-61
2022/03/02 03:58:45;;;;;;;11.75;5.28;;;8.80;72.70;;;;;;5038784;28;20044;-61
2022/03/02 04:01:10;;;;;;;9.63;4.68;;;8.80;72.70;;;;;;5017272;28;20025;-61
2022/03/02 04:03:36;;;;;;;8.43;4.88;;;8.80;72.90;;;;;;5029495;28;20111;-60
2022/03/02 04:06:03;;;;;;;10.40;4.85;;;8.70;72.60;;;;;;5030136;28;20106;-61
2022/03/02 04:08:28;;;;;;;18.27;4.82;;;8.80;72.80;;;;;;5041238;28;20550;-61
2022/03/02 04:10:54;;;;;;;16.77;4.72;;;8.80;72.60;;;;;;5024641;28;20119;-61
2022/03/02 04:13:20;;;;;;;6.93;4.05;;;8.80;72.60;;;;;;5042456;28;20016;-61
2022/03/02 04:15:46;;;;;;;7.45;3.65;;;8.80;72.40;;;;;;5028910;28;20279;-61
2022/03/02 04:18:12;;;;;;;8.85;4.20;;;8.80;72.50;;;;;;5018755;28;20056;-60
2022/03/02 04:20:38;;;;;;;7.72;3.90;;;8.80;72.90;;;;;;5028552;28;20044;-61
2022/03/02 04:23:05;;;;;;;8.02;3.60;;;8.80;72.50;;;;;;5038516;28;20040;-61
2022/03/02 04:25:31;;;;;;;11.35;5.30;;;8.80;72.50;;;;;;5028823;28;20382;-63
2022/03/02 04:27:57;;;;;;;8.27;4.78;;;8.80;72.60;;;;;;5020763;28;20025;-61
2022/03/02 04:30:23;;;;;;;10.73;4.25;;;8.80;72.30;;;;;;5033788;28;20355;-61
2022/03/02 04:32:49;;;;;;;11.60;4.63;;;8.80;72.60;;;;;;5038191;28;20070;-61
2022/03/02 04:35:14;;;;;;;10.90;4.20;;;8.70;72.60;;;;;;5047578;28;20040;-61
2022/03/02 04:37:41;;;;;;;9.60;4.50;;;8.80;72.40;;;;;;5042433;28;20025;-61
2022/03/02 04:40:10;;;;;;;11.32;4.68;;;8.80;72.30;;;;;;5022619;28;20021;-61
2022/03/02 04:42:37;;;;;;;6.82;3.53;;;8.80;72.30;;;;;;5018007;28;20041;-61
2022/03/02 04:45:04;;;;;;;9.63;3.83;;;8.80;72.30;;;;;;5015044;28;20030;-60
2022/03/02 04:47:50;;;;;;;14.88;4.35;;;8.80;72.40;;;;;;4953607;28;20039;-62
2022/03/02 04:50:16;;;;;;;9.93;4.40;;;8.80;72.40;;;;;;4991153;28;20554;-61
2022/03/02 04:52:42;;;;;;;6.85;4.00;;;8.70;72.50;;;;;;4989050;28;20041;-62
2022/03/02 04:55:09;;;;;;;7.00;3.97;;;8.80;72.30;;;;;;5015864;28;20058;-61
2022/03/02 04:57:44;;;;;;;8.25;3.92;;;8.80;72.50;;;;;;4988559;28;20335;-60
2022/03/02 05:00:13;;;;;;;9.68;3.63;;;8.70;72.30;;;;;;4991949;28;20061;-61
2022/03/02 05:02:41;;;;;;;9.18;4.45;;;8.80;72.30;;;;;;4996257;28;20050;-61
2022/03/02 05:05:08;;;;;;;10.43;4.40;;;8.80;72.20;;;;;;5020385;28;20136;-61
2022/03/02 05:07:44;;;;;;;8.18;4.05;;;8.80;71.90;;;;;;4991570;28;20038;-61
2022/03/02 05:10:11;;;;;;;11.90;4.50;;;8.80;72.00;;;;;;5011030;28;20022;-61
2022/03/02 05:12:37;;;;;;;13.35;4.03;;;8.80;72.40;;;;;;4987755;28;20069;-61
2022/03/02 05:15:04;;;;;;;8.55;4.80;;;8.70;72.20;;;;;;4998017;28;20503;-62
2022/03/02 05:17:31;;;;;;;7.90;4.22;;;8.70;72.20;;;;;;5002466;28;20083;-62
2022/03/02 05:19:57;;;;;;;6.53;3.88;;;8.80;72.30;;;;;;5033585;28;20478;-61
2022/03/02 05:22:23;;;;;;;14.00;4.32;;;8.80;72.40;;;;;;5035772;28;20025;-61
2022/03/02 05:24:48;;;;;;;11.77;4.50;;;8.70;72.40;;;;;;5031030;28;20104;-61
2022/03/02 05:27:14;;;;;;;10.82;4.25;;;8.70;72.40;;;;;;5030029;28;20195;-61
2022/03/02 05:29:39;;;;;;;11.23;4.53;;;8.80;72.40;;;;;;5029065;28;20052;-61
2022/03/02 05:32:05;;;;;;;7.45;3.78;;;8.80;72.40;;;;;;5022162;28;20110;-61
2022/03/02 05:34:31;;;;;;;9.93;4.28;;;8.80;72.50;;;;;;5043865;28;20166;-61
2022/03/02 05:36:57;;;;;;;9.27;3.78;;;8.70;72.50;;;;;;5038922;28;20033;-61
2022/03/02 05:39:23;;;;;;;10.52;3.90;;;8.70;72.40;;;;;;5033107;28;20026;-61
2022/03/02 05:41:50;;;;;;;8.55;3.67;;;8.80;72.50;;;;;;5028689;28;20470;-61
2022/03/02 05:44:15;;;;;;;14.02;3.92;;;8.80;72.30;;;;;;5039527;28;20056;-61
2022/03/02 05:46:41;;;;;;;6.90;3.60;;;8.70;73.30;;;;;;5041383;28;20470;-62
2022/03/02 05:49:10;;;;;;;8.35;3.92;;;8.70;72.30;;;;;;5045604;28;20030;-63
2022/03/02 05:51:36;;;;;;;8.60;4.40;;;8.70;72.50;;;;;;5038842;28;20344;-62
2022/03/02 05:54:03;;;;;;;7.85;3.92;;;8.70;72.50;;;;;;5038319;28;20021;-62
2022/03/02 05:56:30;;;;;;;16.05;4.03;;;8.70;72.10;;;;;;5043304;28;20033;-62
2022/03/02 05:58:56;;;;;;;6.68;3.65;;;8.70;72.40;;;;;;5035303;28;20473;-62
2022/03/02 06:01:22;;;;;;;10.30;4.10;;;8.70;72.40;;;;;;5041817;28;20033;-62
2022/03/02 06:03:49;;;;;;;11.73;4.20;;;8.80;72.30;;;;;;5034035;28;20036;-63
2022/03/02 06:06:15;;;;;;;12.23;4.82;;;8.70;72.30;;;;;;5032613;28;20508;-62
2022/03/02 06:08:41;;;;;;;8.15;3.20;;;8.70;72.50;;;;;;5032055;28;20043;-62
2022/03/02 06:11:07;;;;;;;8.30;4.55;;;8.80;72.20;;;;;;5033954;28;20028;-62
2022/03/02 06:13:34;;;;;;;9.00;4.70;;;8.80;72.00;;;;;;5038370;28;20025;-62
2022/03/02 06:16:00;;;;;;;11.32;4.35;;;8.70;72.20;;;;;;5021057;28;20034;-62
2022/03/02 06:18:26;;;;;;;10.65;4.07;;;8.80;72.20;;;;;;5035798;28;20035;-62
2022/03/02 06:20:59;;;;;;;20.77;5.38;;;8.70;72.20;;;;;;5034655;28;20090;-62
2022/03/02 06:23:26;;;;;;;11.98;5.13;;;8.70;72.20;;;;;;5036944;28;20470;-62
2022/03/02 06:25:52;;;;;;;7.90;4.50;;;8.70;72.20;;;;;;5024243;28;20029;-62
2022/03/02 06:28:17;;;;;;;20.30;5.05;;;8.70;72.50;;;;;;5038366;28;20038;-62
2022/03/02 06:30:43;;;;;;;8.85;4.57;;;8.70;72.40;;;;;;5047262;28;20030;-63
2022/03/02 06:33:11;;;;;;;7.53;3.38;;;8.70;72.40;;;;;;5041971;28;20069;-69
2022/03/02 06:35:37;;;;;;;7.40;3.33;;;8.70;70.30;;;;;;5041165;28;20389;-69
2022/03/02 06:38:02;;;;;;;12.63;4.22;;;8.60;70.10;;;;;;5040303;28;20021;-69
2022/03/02 06:40:28;;;;;;;13.88;6.20;;;8.50;69.50;;;;;;5040984;28;20150;-69
2022/03/02 06:43:04;;;;;;;11.35;5.25;;;8.40;68.40;;;;;;5020106;28;20393;-69
2022/03/02 06:45:57;;;;;;;12.68;5.60;;;8.40;68.10;;;;;;5016294;28;20478;-69
2022/03/02 06:48:30;;;;;;;13.70;5.47;;;8.40;66.50;;;;;;5025364;28;20049;-69
2022/03/02 06:50:59;;;;;;;11.60;5.55;;;8.40;66.00;;;;;;5041306;28;20025;-70
2022/03/02 06:53:35;;;;;;;13.43;4.53;;;8.30;65.50;;;;;;5044229;28;20113;-69
2022/03/02 06:56:05;;;;;;;9.57;4.47;;;8.30;65.80;;;;;;5039894;28;20119;-69
2022/03/02 06:58:49;;;;;;;9.95;4.35;;;8.30;65.70;;;;;;5034185;28;20032;-68
2022/03/02 07:01:25;;;;;;;10.35;4.35;;;8.20;65.00;;;;;;5041325;28;20079;-69
2022/03/02 07:03:54;;;;;;;11.45;4.82;;;8.20;65.80;;;;;;5045029;28;20425;-69
2022/03/02 07:06:21;;;;;;;11.35;4.63;;;8.20;64.30;;;;;;5041092;28;20490;-68
2022/03/02 07:08:48;;;;;;;6.28;4.18;;;8.20;64.70;;;;;;5039793;28;20449;-68
2022/03/02 07:11:16;;;;;;;12.38;4.18;;;8.20;65.00;;;;;;5042424;28;20021;-68
2022/03/02 07:13:45;;;;;;;12.80;5.20;;;8.20;64.60;;;;;;5045186;28;20021;-69
2022/03/02 07:16:16;;;;;;;10.63;4.20;;;8.20;64.00;;;;;;5044271;28;20097;-69
2022/03/02 07:18:42;;;;;;;13.05;4.78;;;8.20;64.40;;;;;;5047123;28;20025;-69
2022/03/02 07:21:12;;;;;;;9.32;3.80;;;8.20;63.50;;;;;;5036456;28;20112;-69
2022/03/02 07:24:27;;;;;;;8.73;3.77;;;8.20;63.60;;;;;;5023898;28;20040;-68
2022/03/02 07:26:56;;;;;;;9.93;4.03;;;8.10;63.50;;;;;;5036928;28;20099;-68
2022/03/02 07:29:26;;;;;;;9.40;3.40;;;8.10;63.40;;;;;;5038517;28;20099;-68
2022/03/02 07:31:56;;;;;;;5.78;3.35;;;8.10;63.20;;;;;;5037124;28;20060;-69
2022/03/02 07:34:24;;;;;;;7.05;4.13;;;8.10;63.80;;;;;;5042036;28;20029;-69
2022/03/02 07:36:50;;;;;;;6.90;3.47;;;8.10;62.40;;;;;;5042441;28;20100;-69
2022/03/02 07:39:16;;;;;;;9.00;4.25;;;8.10;62.40;;;;;;5045357;28;20482;-70
2022/03/02 07:41:42;;;;;;;8.68;3.67;;;8.10;62.60;;;;;;5043110;28;20423;-69
2022/03/02 07:46:33;;;;;;;9.20;4.95;;;8.10;62.10;;;;;;5059147;23;20136;-63
2022/03/02 07:48:59;;;;;;;13.40;5.43;;;8.10;61.70;;;;;;5040094;28;20037;-63
2022/03/02 07:51:26;;;;;;;10.45;4.55;;;8.10;62.40;;;;;;5020932;28;20426;-64
2022/03/02 07:54:00;;;;;;;10.88;4.25;;;8.10;61.80;;;;;;5038030;28;20030;-65
2022/03/02 07:56:29;;;;;;;12.13;4.05;;;8.10;61.70;;;;;;5035184;28;20028;-63
2022/03/02 07:59:02;;;;;;;10.80;4.72;;;8.10;60.10;;;;;;5040444;28;20017;-62
2022/03/02 08:01:27;;;;;;;9.85;4.65;;;8.00;60.70;;;;;;5034288;28;20498;-63
2022/03/02 08:03:56;;;;;;;9.45;4.47;;;8.00;60.20;;;;;;5045518;28;20037;-63
2022/03/02 08:06:22;;;;;;;11.82;4.60;;;8.00;60.30;;;;;;5033685;28;20032;-63
2022/03/02 08:08:51;;;;;;;8.82;4.07;;;8.00;61.20;;;;;;5036386;28;20044;-63
2022/03/02 08:11:17;;;;;;;6.30;4.00;;;8.10;61.00;;;;;;5036664;28;20025;-64
2022/03/02 08:13:43;;;;;;;12.95;5.00;;;8.00;59.90;;;;;;5042933;28;20068;-65
2022/03/02 08:16:08;;;;;;;10.07;3.60;;;8.00;60.60;;;;;;5036267;28;20110;-62
2022/03/02 08:18:35;;;;;;;10.48;4.60;;;8.00;60.60;;;;;;5033034;28;20033;-62
2022/03/02 08:21:03;;;;;;;7.05;4.03;;;8.00;61.20;;;;;;5036583;28;20032;-63
2022/03/02 08:23:37;;;;;;;8.20;4.10;;;8.00;61.40;;;;;;5043065;28;20166;-62
2022/03/02 08:26:04;;;;;;;20.73;4.53;;;8.10;61.00;;;;;;5042388;28;20086;-62
2022/03/02 08:28:33;;;;;;;9.00;3.55;;;8.10;62.00;;;;;;5035597;28;20048;-63
2022/03/02 08:30:59;;;;;;;13.10;4.38;;;8.10;61.20;;;;;;5036874;28;20032;-63
2022/03/02 08:33:27;;;;;;;13.68;4.82;;;8.10;60.50;;;;;;5035169;28;21619;-62
2022/03/02 08:35:55;;;;;;;8.75;3.78;;;8.10;60.70;;;;;;5043900;28;20370;-63
2022/03/02 08:38:22;;;;;;;7.10;4.22;;;8.10;60.60;;;;;;5046323;28;20029;-63
2022/03/02 08:40:50;;;;;;;7.65;3.80;;;8.00;59.60;;;;;;5035185;28;20029;-64
2022/03/02 08:43:17;;;;;;;13.23;4.70;;;8.00;59.70;;;;;;5034126;28;20037;-63
2022/03/02 08:45:47;;;;;;;9.98;4.55;;;8.00;61.20;;;;;;5034378;28;20037;-63
2022/03/02 08:48:17;;;;;;;;;;;8.10;61.40;;;;;;5023731;28;20049;-64
2022/03/02 08:50:43;;;;;;;8.95;4.15;;;8.10;61.30;;;;;;5037379;28;19988;-65
2022/03/02 08:53:13;;;;;;;13.40;4.45;;;8.10;60.70;;;;;;5038751;28;20087;-63
2022/03/02 08:55:40;;;;;;;13.57;4.20;;;8.10;59.80;;;;;;5037705;28;20021;-62
2022/03/02 08:58:08;;;;;;;15.65;4.97;;;8.10;60.40;;;;;;5042211;28;20040;-63
2022/03/02 09:00:34;;;;;;;11.55;4.03;;;8.10;60.60;;;;;;5040446;28;20021;-63
2022/03/02 09:03:02;;;;;;;9.52;4.32;;;8.10;60.70;;;;;;5031624;28;20043;-62
2022/03/02 09:05:28;;;;;;;8.93;4.88;;;8.00;59.70;;;;;;5036587;28;20465;-62
2022/03/02 09:07:55;;;;;;;8.75;4.38;;;8.00;60.50;;;;;;5039116;28;20312;-63
2022/03/02 09:10:20;;;;;;;22.38;5.78;;;8.00;60.10;;;;;;5026919;28;20469;-62
2022/03/02 09:12:46;;;;;;;9.80;4.43;;;8.10;61.50;;;;;;5039720;28;20072;-64
2022/03/02 09:15:12;;;;;;;10.10;4.60;;;8.20;61.70;;;;;;5032331;28;20466;-62
2022/03/02 09:17:38;;;;;;;12.32;4.65;;;8.20;60.40;;;;;;5033770;28;20044;-63
2022/03/02 09:20:05;;;;;;;19.00;6.10;;;8.20;60.90;;;;;;5041306;28;20413;-63
2022/03/02 09:22:32;;;;;;;13.88;5.70;;;8.20;61.20;;;;;;5035975;28;20102;-63
2022/03/02 09:24:58;;;;;;;13.77;4.65;;;8.30;62.30;;;;;;5033280;28;20112;-63
2022/03/02 09:27:29;;;;;;;10.80;4.82;;;8.30;61.00;;;;;;5034596;28;20096;-64
2022/03/02 09:29:58;;;;;;;16.33;6.55;;;8.30;60.80;;;;;;5031925;28;20097;-63
2022/03/02 09:32:25;;;;;;;13.73;5.20;;;8.40;62.20;;;;;;5041944;28;20377;-62
2022/03/02 09:34:54;;;;;;;11.77;6.03;;;8.40;62.20;;;;;;5038741;28;20048;-63
2022/03/02 09:37:23;;;;;;;8.45;4.47;;;8.40;62.40;;;;;;5035970;28;20021;-62
2022/03/02 09:39:50;;;;;;;11.68;3.83;;;8.40;62.20;;;;;;5031618;28;20082;-61
2022/03/02 09:42:26;;;;;;;20.70;5.85;;;8.50;62.40;;;;;;5038621;28;20029;-62
2022/03/02 09:45:07;;;;;;;10.20;4.43;;;8.40;61.70;;;;;;5036693;28;20087;-63
2022/03/02 09:47:52;;;;;;;10.45;5.45;;;8.50;61.40;;;;;;5039869;28;20087;-64
2022/03/02 09:50:19;;;;;;;22.58;5.93;;;8.40;61.50;;;;;;5031516;28;20386;-62
2022/03/02 09:52:47;;;;;;;16.73;6.10;;;8.50;62.00;;;;;;5041991;28;20086;-63
2022/03/02 09:55:16;;;;;;;12.75;6.72;;;8.50;62.40;;;;;;5037848;28;20478;-63
2022/03/02 09:57:50;;;;;;;20.00;5.88;;;8.40;63.20;;;;;;5038130;28;20375;-65
2022/03/02 10:00:21;;;;;;;11.02;6.22;;;8.50;62.30;;;;;;5035401;28;20029;-64
2022/03/02 10:02:50;;;;;;;21.23;7.22;;;8.50;61.30;;;;;;5035279;28;20045;-65
2022/03/02 10:05:20;;;;;;;28.73;7.97;;;8.60;62.10;;;;;;5034450;28;20013;-64
2022/03/02 10:07:55;;;;;;;14.48;5.75;;;8.60;63.00;;;;;;5037156;28;20044;-63
2022/03/02 10:10:24;;;;;;;22.92;8.00;;;8.60;62.50;;;;;;5021894;28;20026;-64
2022/03/02 10:12:51;;;;;;;20.13;8.48;;;8.60;61.40;;;;;;5031030;28;20128;-63
2022/03/02 10:15:18;;;;;;;10.27;4.13;;;8.60;63.40;;;;;;5014813;28;20421;-63
2022/03/02 10:17:47;;;;;;;17.17;6.63;;;8.60;64.40;;;;;;5038425;28;20028;-63
2022/03/02 10:20:27;;;;;;;23.48;7.25;;;8.50;59.90;;;;;;5034065;28;20049;-62
2022/03/02 10:23:03;;;;;;;;;;;8.60;62.20;;;;;;5035598;28;20498;-63
2022/03/02 10:26:01;;;;;;;11.85;4.75;;;8.70;63.40;;;;;;5032621;28;19909;-62
2022/03/02 10:28:42;;;;;;;19.48;7.47;;;8.70;62.60;;;;;;5039816;28;20036;-64
2022/03/02 10:31:36;;;;;;;11.85;5.38;;;8.80;63.50;;;;;;5035078;28;20112;-64
2022/03/02 10:34:26;;;;;;;16.58;6.85;;;8.80;62.40;;;;;;5007031;28;20038;-63
2022/03/02 10:37:01;;;;;;;16.38;5.60;;;8.80;62.00;;;;;;5030403;28;20060;-63
2022/03/02 10:39:51;;;;;;;10.07;4.35;;;8.90;62.70;;;;;;5035574;28;20035;-63
2022/03/02 10:42:22;;;;;;;19.63;6.75;;;9.00;62.40;;;;;;5033810;28;20036;-66
2022/03/02 10:45:08;;;;;;;14.40;5.43;;;9.10;62.30;;;;;;5040359;28;20463;-63
2022/03/02 10:47:47;;;;;;;17.95;6.35;;;9.10;62.10;;;;;;5019596;28;20476;-62
2022/03/02 10:50:13;;;;;;;13.50;4.18;;;9.10;62.20;;;;;;5034430;28;20021;-64
2022/03/02 10:52:40;;;;;;;17.35;7.32;;;9.20;61.80;;;;;;5028994;28;20016;-64
2022/03/02 10:55:10;;;;;;;16.70;4.90;;;9.20;61.90;;;;;;5031454;28;20033;-63
2022/03/02 10:57:36;;;;;;;15.50;6.82;;;9.20;62.00;;;;;;5043791;28;20021;-64
2022/03/02 11:00:22;;;;;;;13.80;6.80;;;9.20;62.70;;;;;;5031638;28;20474;-63
2022/03/02 11:02:54;;;;;;;14.60;5.55;;;9.20;62.80;;;;;;5033479;28;20584;-64
2022/03/02 11:05:20;;;;;;;15.35;7.47;;;9.20;62.70;;;;;;5037031;28;20493;-63
2022/03/02 11:07:47;;;;;;;10.15;4.95;;;9.20;62.50;;;;;;5031436;28;20045;-63
2022/03/02 11:10:17;;;;;;;22.48;8.27;;;9.20;62.60;;;;;;5037670;28;20040;-63
2022/03/02 11:12:44;;;;;;;17.55;7.07;;;9.20;62.70;;;;;;5035034;28;20017;-64
2022/03/02 11:15:12;;;;;;;12.80;5.00;;;9.20;63.80;;;;;;5043084;28;20230;-63
2022/03/02 11:17:50;;;;;;;13.68;6.78;;;9.20;62.80;;;;;;5038195;28;20623;-64
2022/03/02 11:20:16;;;;;;;11.95;5.05;;;9.30;62.00;;;;;;5030877;28;20124;-62
2022/03/02 11:23:00;;;;;;;20.85;4.53;;;9.30;62.90;;;;;;5037867;28;20045;-64
2022/03/02 11:25:46;;;;;;;17.88;6.80;;;9.20;60.50;;;;;;5041284;28;20017;-64
2022/03/02 11:28:25;;;;;;;17.65;7.10;;;9.10;62.30;;;;;;5044632;28;20401;-64
2022/03/02 11:30:57;;;;;;;13.80;6.50;;;9.20;63.40;;;;;;5041672;28;20026;-63
2022/03/02 11:33:29;;;;;;;5.20;3.58;;;9.10;61.00;;;;;;5036079;28;20409;-64
2022/03/02 11:36:00;;;;;;;14.65;7.22;;;9.20;60.10;;;;;;5037128;28;20032;-64
2022/03/02 11:38:31;;;;;;;14.15;6.30;;;9.20;60.40;;;;;;5041527;28;20032;-63
2022/03/02 11:40:57;;;;;;;21.48;7.22;;;9.30;61.80;;;;;;5045972;28;20570;-64
2022/03/02 11:43:32;;;;;;;18.63;7.55;;;9.30;61.20;;;;;;5037321;28;20021;-65
2022/03/02 11:46:09;;;;;;;18.70;7.70;;;9.40;62.00;;;;;;5041898;28;20423;-64
2022/03/02 11:48:38;;;;;;;10.65;5.40;;;9.40;61.90;;;;;;5035570;28;20032;-63
2022/03/02 11:51:13;;;;;;;10.65;4.38;;;9.40;61.80;;;;;;5032210;28;20052;-63
2022/03/02 11:53:59;;;;;;;17.02;6.82;;;9.40;62.10;;;;;;5034795;28;20057;-64
2022/03/02 11:56:27;;;;;;;14.98;6.07;;;9.40;62.50;;;;;;5038477;28;20013;-64
2022/03/02 11:58:53;;;;;;;18.08;8.18;;;9.40;62.00;;;;;;5029346;28;20138;-64
2022/03/02 12:01:19;;;;;;;15.25;8.27;;;9.30;60.10;;;;;;5035106;28;20032;-64
2022/03/02 12:04:03;;;;;;;9.75;2.40;;;9.30;62.00;;;;;;5029903;28;20033;-64
2022/03/02 12:06:37;;;;;;;19.10;4.45;;;9.30;60.50;;;;;;5030034;28;20014;-63
2022/03/02 12:09:04;;;;;;;21.08;9.70;;;9.20;59.30;;;;;;5037078;28;20053;-64
2022/03/02 12:11:38;;;;;;;22.17;9.48;;;9.20;61.70;;;;;;5040340;28;20079;-63
2022/03/02 12:14:09;;;;;;;22.20;6.75;;;9.30;62.00;;;;;;5030320;28;20450;-65
2022/03/02 12:16:40;;;;;;;25.38;8.85;;;9.30;61.60;;;;;;5029222;28;20017;-64
2022/03/02 12:19:23;;;;;;;7.68;4.18;;;9.40;62.30;;;;;;5016093;28;20359;-64
2022/03/02 12:21:52;;;;;;;11.95;5.82;;;9.30;61.70;;;;;;5022862;28;20517;-64
2022/03/02 12:24:32;;;;;;;17.60;7.75;;;9.30;60.80;;;;;;5028697;28;20053;-68
2022/03/02 12:27:02;;;;;;;;;;;9.20;61.70;;;;;;5022134;28;20031;-64
2022/03/02 12:29:30;;;;;;;20.42;8.65;;;9.20;62.30;;;;;;5033179;28;19912;-63
2022/03/02 12:32:17;;;;;;;25.95;9.68;;;9.30;62.70;;;;;;5031188;28;20033;-65
2022/03/02 12:34:54;;;;;;;14.57;7.88;;;9.30;62.90;;;;;;5033677;28;20087;-64
2022/03/02 12:37:22;;;;;;;22.00;8.95;;;9.30;61.60;;;;;;5029371;28;20037;-64
2022/03/02 12:39:48;;;;;;;16.70;7.22;;;9.30;61.90;;;;;;5028682;28;20026;-63
2022/03/02 12:42:15;;;;;;;14.63;5.75;;;9.30;63.10;;;;;;5031909;28;20026;-67
2022/03/02 12:44:46;;;;;;;20.85;8.45;;;9.20;62.50;;;;;;5028841;28;20032;-64
2022/03/02 12:47:15;;;;;;;21.48;7.95;;;9.20;62.10;;;;;;5032528;28;20375;-62
2022/03/02 12:49:43;;;;;;;18.77;7.63;;;9.20;62.80;;;;;;5032867;28;20056;-63
2022/03/02 12:52:10;;;;;;;17.33;8.45;;;9.20;63.10;;;;;;5028943;28;20049;-64
2022/03/02 12:54:39;;;;;;;16.98;7.72;;;9.20;63.80;;;;;;5028542;28;20034;-64
2022/03/02 12:57:13;;;;;;;17.63;6.38;;;9.20;64.30;;;;;;5032856;28;20028;-64
2022/03/02 12:59:40;;;;;;;20.85;7.25;;;9.20;63.60;;;;;;5029928;28;20113;-64
2022/03/02 13:02:19;;;;;;;12.43;6.20;;;9.20;62.50;;;;;;5024781;28;20056;-63